createdAt,value
2023-01-18T00:02:00.639Z,56.68
2023-01-18T00:04:34.397Z,56.71
2023-01-18T00:07:02.109Z,56.85
2023-01-18T00:09:31.291Z,56.86
2023-01-18T00:11:59.388Z,56.74
2023-01-18T00:14:35.965Z,56.91
2023-01-18T00:17:05.092Z,56.74
2023-01-18T00:19:34.590Z,56.70
2023-01-18T00:22:08.423Z,56.84
2023-01-18T00:24:36.156Z,56.85
2023-01-18T00:27:10.278Z,56.61
2023-01-18T00:29:38.397Z,56.78
2023-01-18T00:32:07.726Z,56.56
2023-01-18T00:34:38.379Z,56.86
2023-01-18T00:37:07.772Z,56.63
2023-01-18T00:39:35.437Z,56.52
2023-01-18T00:42:20.910Z,56.59
2023-01-18T00:44:48.622Z,56.64
2023-01-18T00:47:17.895Z,56.75
2023-01-18T00:49:46.287Z,56.83
2023-01-18T00:52:14.020Z,56.81
2023-01-18T00:54:41.704Z,57.03
2023-01-18T00:57:09.452Z,56.88
2023-01-18T00:59:37.141Z,56.70
2023-01-18T01:02:05.038Z,56.58
2023-01-18T01:04:51.774Z,56.80
2023-01-18T01:07:19.451Z,56.44
2023-01-18T01:09:47.104Z,56.73
2023-01-18T01:12:32.543Z,57.05
2023-01-18T01:15:17.917Z,56.93
2023-01-18T01:18:03.434Z,57.26
2023-01-18T01:20:50.145Z,57.21
2023-01-18T01:23:37.501Z,57.30
2023-01-18T01:26:10.796Z,57.27
2023-01-18T01:28:41.017Z,57.30
2023-01-18T01:31:12.504Z,57.23
2023-01-18T01:33:41.186Z,57.17
2023-01-18T01:36:14.129Z,56.90
2023-01-18T01:38:42.427Z,56.69
2023-01-18T01:41:14.903Z,56.57
2023-01-18T01:43:45.549Z,56.45
2023-01-18T01:46:23.036Z,56.59
2023-01-18T01:48:51.971Z,56.48
2023-01-18T01:51:21.439Z,56.36
2023-01-18T01:53:51.437Z,56.60
2023-01-18T01:56:19.782Z,56.75
2023-01-18T01:58:51.749Z,56.86
2023-01-18T02:01:19.641Z,57.08
2023-01-18T02:03:47.483Z,56.81
2023-01-18T02:06:31.653Z,56.93
2023-01-18T02:09:01.837Z,56.98
2023-01-18T02:11:30.379Z,57.17
2023-01-18T02:14:01.236Z,57.09
2023-01-18T02:16:39.449Z,57.08
2023-01-18T02:19:28.653Z,57.14
2023-01-18T02:21:59.974Z,56.96
2023-01-18T02:25:07.969Z,57.26
2023-01-18T02:27:44.452Z,57.31
2023-01-18T02:30:26.210Z,57.11
2023-01-18T02:33:05.282Z,56.89
2023-01-18T02:35:48.219Z,57.08
2023-01-18T02:38:20.322Z,57.20
2023-01-18T02:41:03.135Z,57.47
2023-01-18T02:43:48.142Z,57.24
2023-01-18T02:46:38.702Z,57.27
2023-01-18T02:49:09.371Z,57.42
2023-01-18T02:51:37.193Z,57.38
2023-01-18T02:54:09.355Z,57.45
2023-01-18T02:56:41.284Z,57.45
2023-01-18T02:59:16.122Z,57.55
2023-01-18T03:01:50.021Z,57.41
2023-01-18T03:04:21.741Z,57.61
2023-01-18T03:06:57.399Z,57.32
2023-01-18T03:09:27.118Z,57.36
2023-01-18T03:12:02.078Z,57.32
2023-01-18T03:14:41.936Z,57.40
2023-01-18T03:17:19.742Z,57.50
2023-01-18T03:20:04.903Z,57.54
2023-01-18T03:22:54.000Z,57.92
2023-01-18T03:25:25.993Z,57.53
2023-01-18T03:28:14.458Z,57.43
2023-01-18T03:31:02.137Z,57.58
2023-01-18T03:33:44.752Z,57.24
2023-01-18T03:36:23.591Z,57.48
2023-01-18T03:38:56.868Z,57.37
2023-01-18T03:41:29.495Z,57.35
2023-01-18T03:44:03.223Z,57.50
2023-01-18T03:46:33.192Z,57.49
2023-01-18T03:49:02.459Z,57.62
2023-01-18T03:51:47.324Z,57.43
2023-01-18T03:54:21.170Z,57.12
2023-01-18T03:56:53.282Z,57.06
2023-01-18T03:59:21.664Z,57.01
2023-01-18T04:01:50.091Z,56.96
2023-01-18T04:04:19.157Z,56.90
2023-01-18T04:06:46.836Z,56.80
2023-01-18T04:09:14.678Z,56.80
2023-01-18T04:11:42.386Z,57.00
2023-01-18T04:14:10.088Z,56.60
2023-01-18T04:16:37.854Z,56.54
2023-01-18T04:19:07.387Z,56.74
2023-01-18T04:21:36.616Z,56.69
2023-01-18T04:24:04.343Z,56.53
2023-01-18T04:26:34.128Z,56.27
2023-01-18T04:29:01.890Z,56.41
2023-01-18T04:31:29.654Z,56.46
2023-01-18T04:33:57.685Z,56.70
2023-01-18T04:36:25.437Z,56.58
2023-01-18T04:38:57.552Z,56.97
2023-01-18T04:41:25.395Z,56.86
2023-01-18T04:43:53.081Z,56.67
2023-01-18T04:46:20.804Z,57.02
2023-01-18T04:48:51.111Z,57.75
2023-01-18T04:51:19.386Z,57.21
2023-01-18T04:53:48.026Z,57.05
2023-01-18T04:56:18.093Z,56.94
2023-01-18T04:58:46.573Z,56.78
2023-01-18T05:01:14.491Z,56.88
2023-01-18T05:03:42.334Z,56.84
2023-01-18T05:06:12.121Z,56.76
2023-01-18T05:08:42.598Z,56.88
2023-01-18T05:11:12.414Z,57.17
2023-01-18T05:13:42.325Z,57.31
2023-01-18T05:16:14.611Z,57.09
2023-01-18T05:18:42.487Z,57.40
2023-01-18T05:21:10.240Z,57.19
2023-01-18T05:23:39.857Z,57.18
2023-01-18T05:26:14.423Z,57.67
2023-01-18T05:28:44.695Z,57.75
2023-01-18T05:31:12.584Z,57.42
2023-01-18T05:33:40.708Z,57.42
2023-01-18T05:36:09.182Z,57.66
2023-01-18T05:38:37.165Z,57.63
2023-01-18T05:41:05.221Z,57.73
2023-01-18T05:43:33.838Z,57.99
2023-01-18T05:46:04.637Z,57.94
2023-01-18T05:48:32.463Z,57.75
2023-01-18T05:51:00.153Z,57.83
2023-01-18T05:53:27.929Z,57.74
2023-01-18T05:55:57.447Z,57.86
2023-01-18T05:58:25.644Z,57.61
2023-01-18T06:00:53.570Z,58.20
2023-01-18T06:03:23.219Z,58.36
2023-01-18T06:05:51.719Z,58.33
2023-01-18T06:08:20.199Z,58.35
2023-01-18T06:10:53.920Z,58.52
2023-01-18T06:13:22.486Z,58.69
2023-01-18T06:15:50.348Z,58.62
2023-01-18T06:18:18.294Z,58.88
2023-01-18T06:20:47.705Z,58.79
2023-01-18T06:23:15.452Z,58.81
2023-01-18T06:25:43.194Z,58.82
2023-01-18T06:28:10.872Z,58.79
2023-01-18T06:30:38.685Z,59.08
2023-01-18T06:33:08.108Z,58.87
2023-01-18T06:35:36.345Z,58.92
2023-01-18T06:38:06.447Z,58.94
2023-01-18T06:40:34.385Z,59.13
2023-01-18T06:43:02.332Z,58.77
2023-01-18T06:45:30.452Z,58.85
2023-01-18T06:47:58.302Z,58.91
2023-01-18T06:50:26.025Z,59.06
2023-01-18T06:52:55.673Z,59.03
2023-01-18T06:55:24.958Z,59.29
2023-01-18T06:57:52.688Z,58.91
2023-01-18T07:00:21.270Z,58.65
2023-01-18T07:02:49.006Z,58.82
2023-01-18T07:05:16.844Z,58.57
2023-01-18T07:07:45.755Z,58.27
2023-01-18T07:10:16.195Z,57.62
2023-01-18T07:12:48.697Z,57.73
2023-01-18T07:15:21.835Z,57.59
2023-01-18T07:17:51.207Z,57.50
2023-01-18T07:20:19.921Z,57.34
2023-01-18T07:22:52.572Z,57.15
2023-01-18T07:25:20.893Z,56.87
2023-01-18T07:27:50.274Z,56.71
2023-01-18T07:30:18.766Z,56.61
2023-01-18T07:32:49.708Z,56.74
2023-01-18T07:35:18.388Z,56.61
2023-01-18T07:37:49.457Z,56.54
2023-01-18T07:40:18.032Z,56.36
2023-01-18T07:42:45.959Z,55.97
2023-01-18T07:45:15.438Z,55.41
2023-01-18T07:47:43.492Z,55.19
2023-01-18T07:50:14.053Z,54.92
2023-01-18T07:52:41.930Z,54.70
2023-01-18T07:55:10.354Z,54.65
2023-01-18T07:57:38.079Z,54.52
2023-01-18T08:00:07.793Z,54.41
2023-01-18T08:02:36.888Z,54.26
2023-01-18T08:05:04.977Z,53.75
2023-01-18T08:07:33.209Z,53.99
2023-01-18T08:10:00.942Z,53.81
2023-01-18T08:12:28.946Z,53.83
2023-01-18T08:14:56.677Z,53.88
2023-01-18T08:17:24.354Z,53.83
2023-01-18T08:19:53.738Z,54.02
2023-01-18T08:22:21.603Z,54.11
2023-01-18T08:24:49.304Z,54.05
2023-01-18T08:27:17.379Z,54.28
2023-01-18T08:29:46.054Z,54.28
2023-01-18T08:32:14.215Z,54.14
2023-01-18T08:34:41.943Z,53.84
2023-01-18T08:37:11.808Z,53.92
2023-01-18T08:39:39.602Z,54.22
2023-01-18T08:42:07.421Z,54.09
2023-01-18T08:44:35.178Z,54.20
2023-01-18T08:47:03.396Z,53.77
2023-01-18T08:49:32.645Z,53.58
2023-01-18T08:52:00.439Z,53.90
2023-01-18T08:54:29.728Z,53.51
2023-01-18T08:56:57.489Z,53.76
2023-01-18T08:59:25.358Z,53.53
2023-01-18T09:01:53.416Z,53.26
2023-01-18T09:04:22.843Z,53.27
2023-01-18T09:06:51.543Z,53.17
2023-01-18T09:09:19.782Z,52.68
2023-01-18T09:11:51.764Z,52.70
2023-01-18T09:14:19.834Z,52.55
2023-01-18T09:16:47.709Z,52.43
2023-01-18T09:19:15.473Z,52.25
2023-01-18T09:21:45.821Z,51.80
2023-01-18T09:24:14.095Z,51.59
2023-01-18T09:26:43.861Z,51.26
2023-01-18T09:29:14.243Z,51.01
2023-01-18T09:31:42.004Z,50.82
2023-01-18T09:34:18.867Z,50.48
2023-01-18T09:36:47.670Z,50.73
2023-01-18T09:39:15.384Z,50.06
2023-01-18T09:41:44.708Z,50.06
2023-01-18T09:44:22.062Z,49.65
2023-01-18T09:46:54.331Z,49.62
2023-01-18T09:49:28.043Z,49.40
2023-01-18T09:52:08.603Z,49.13
2023-01-18T09:54:45.809Z,49.16
2023-01-18T09:57:24.205Z,48.40
2023-01-18T09:59:57.028Z,47.60
2023-01-18T10:02:30.908Z,47.18
2023-01-18T10:05:05.347Z,47.13
2023-01-18T10:07:36.858Z,46.74
2023-01-18T10:10:05.809Z,46.93
2023-01-18T10:12:38.851Z,47.23
2023-01-18T10:15:17.465Z,46.50
2023-01-18T10:17:46.799Z,45.80
2023-01-18T10:20:16.567Z,45.69
2023-01-18T10:22:49.975Z,44.92
2023-01-18T10:25:24.548Z,45.34
2023-01-18T10:28:07.646Z,45.84
2023-01-18T10:31:01.745Z,46.10
2023-01-18T10:33:32.688Z,46.09
2023-01-18T10:36:08.328Z,45.97
2023-01-18T10:38:49.009Z,45.95
2023-01-18T10:41:21.407Z,46.24
2023-01-18T10:43:49.374Z,46.01
2023-01-18T10:46:22.153Z,45.87
2023-01-18T10:48:51.443Z,45.10
2023-01-18T10:51:31.749Z,44.74
2023-01-18T10:53:59.722Z,44.96
2023-01-18T10:56:29.166Z,45.09
2023-01-18T10:58:59.007Z,44.30
2023-01-18T11:01:30.601Z,44.12
2023-01-18T11:04:05.823Z,43.41
2023-01-18T11:06:46.446Z,42.63
2023-01-18T11:09:41.520Z,42.35
2023-01-18T11:12:36.642Z,42.23
2023-01-18T11:15:28.541Z,42.22
2023-01-18T11:18:09.127Z,42.07
2023-01-18T11:20:44.751Z,42.75
2023-01-18T11:23:21.057Z,43.25
2023-01-18T11:25:55.289Z,42.95
2023-01-18T11:28:26.284Z,43.09
2023-01-18T11:30:57.961Z,43.50
2023-01-18T11:33:29.450Z,43.72
2023-01-18T11:36:00.131Z,43.48
2023-01-18T11:38:31.599Z,42.99
2023-01-18T11:41:08.432Z,42.80
2023-01-18T11:43:39.627Z,41.91
2023-01-18T11:46:27.332Z,41.93
2023-01-18T11:49:00.685Z,41.82
2023-01-18T11:51:34.813Z,41.47
2023-01-18T11:54:11.106Z,41.96
2023-01-18T11:56:43.761Z,42.08
2023-01-18T11:59:15.865Z,42.43
2023-01-18T12:02:11.569Z,42.16
2023-01-18T12:04:54.357Z,42.96
2023-01-18T12:07:32.691Z,42.99
2023-01-18T12:10:02.257Z,43.61
2023-01-18T12:12:44.688Z,43.80
2023-01-18T12:15:29.779Z,43.74
2023-01-18T12:18:19.208Z,44.18
2023-01-18T12:20:59.478Z,43.51
2023-01-18T12:23:53.973Z,43.73
2023-01-18T12:26:35.901Z,43.94
2023-01-18T12:29:28.536Z,44.21
2023-01-18T12:32:09.329Z,44.10
2023-01-18T12:34:42.702Z,43.87
2023-01-18T12:37:28.175Z,43.77
2023-01-18T12:40:08.758Z,44.86
2023-01-18T12:42:48.196Z,45.82
2023-01-18T12:45:27.143Z,45.75
2023-01-18T12:48:06.096Z,44.63
2023-01-18T12:50:37.336Z,43.75
2023-01-18T12:53:11.691Z,43.77
2023-01-18T12:55:42.155Z,44.90
2023-01-18T12:58:16.049Z,44.13
2023-01-18T13:00:50.150Z,44.08
2023-01-18T13:03:22.691Z,44.18
2023-01-18T13:05:57.431Z,43.95
2023-01-18T13:08:39.405Z,44.29
2023-01-18T13:11:11.675Z,44.41
2023-01-18T13:13:41.957Z,44.74
2023-01-18T13:16:20.600Z,44.40
2023-01-18T13:18:55.763Z,44.21
2023-01-18T13:21:37.616Z,44.54
2023-01-18T13:24:17.126Z,44.60
2023-01-18T13:26:46.001Z,44.66
2023-01-18T13:29:24.180Z,44.26
2023-01-18T13:31:52.909Z,44.40
2023-01-18T13:34:30.670Z,45.00
2023-01-18T13:37:13.391Z,45.55
2023-01-18T13:39:48.890Z,45.58
2023-01-18T13:42:36.894Z,45.50
2023-01-18T13:45:16.046Z,45.82
2023-01-18T13:47:49.897Z,44.90
2023-01-18T13:50:47.239Z,44.53
2023-01-18T13:53:48.461Z,45.10
2023-01-18T13:56:36.653Z,45.01
2023-01-18T13:59:23.328Z,45.02
2023-01-18T14:01:52.794Z,45.33
2023-01-18T14:04:32.966Z,45.38
2023-01-18T14:07:04.256Z,45.46
2023-01-18T14:09:47.413Z,45.47
2023-01-18T14:12:17.161Z,45.18
2023-01-18T14:14:56.360Z,45.33
2023-01-18T14:17:25.688Z,45.91
2023-01-18T14:20:38.374Z,46.14
2023-01-18T14:23:21.034Z,46.23
2023-01-18T14:26:02.654Z,46.15
2023-01-18T14:28:36.838Z,46.52
2023-01-18T14:31:16.120Z,46.24
2023-01-18T14:33:44.273Z,46.71
2023-01-18T14:36:21.124Z,46.80
2023-01-18T14:38:51.446Z,47.05
2023-01-18T14:41:19.331Z,47.35
2023-01-18T14:43:49.572Z,47.39
2023-01-18T14:46:22.810Z,47.10
2023-01-18T14:48:53.236Z,46.88
2023-01-18T14:51:24.074Z,46.85
2023-01-18T14:53:57.920Z,46.52
2023-01-18T14:56:28.183Z,46.52
2023-01-18T14:58:59.788Z,46.86
2023-01-18T15:01:31.718Z,46.72
2023-01-18T15:04:01.682Z,47.07
2023-01-18T15:06:36.460Z,46.95
2023-01-18T15:09:05.715Z,46.55
2023-01-18T15:11:36.324Z,46.20
2023-01-18T15:14:10.527Z,46.21
2023-01-18T15:16:38.532Z,45.96
2023-01-18T15:19:06.894Z,46.06
2023-01-18T15:21:36.305Z,45.82
2023-01-18T15:24:08.624Z,45.35
2023-01-18T15:26:44.636Z,45.43
2023-01-18T15:29:26.242Z,45.78
2023-01-18T15:31:57.200Z,45.86
2023-01-18T15:34:29.638Z,45.83
2023-01-18T15:36:59.596Z,45.93
2023-01-18T15:39:27.339Z,46.30
2023-01-18T15:41:57.883Z,46.25
2023-01-18T15:44:47.489Z,46.45
2023-01-18T15:47:19.161Z,46.39
2023-01-18T15:49:50.133Z,46.40
2023-01-18T15:52:34.940Z,46.74
2023-01-18T15:55:03.702Z,46.90
2023-01-18T15:57:31.643Z,47.15
2023-01-18T16:00:02.409Z,47.38
2023-01-18T16:02:31.742Z,47.46
2023-01-18T16:05:10.583Z,47.52
2023-01-18T16:07:42.011Z,47.88
2023-01-18T16:10:20.993Z,48.11
2023-01-18T16:12:48.833Z,48.73
2023-01-18T16:15:31.616Z,48.61
2023-01-18T16:18:04.525Z,48.96
2023-01-18T16:20:35.119Z,48.68
2023-01-18T16:23:09.060Z,48.85
2023-01-18T16:25:38.244Z,49.04
2023-01-18T16:28:06.350Z,49.76
2023-01-18T16:30:38.731Z,49.77
2023-01-18T16:33:10.689Z,49.23
2023-01-18T16:35:39.927Z,49.59
2023-01-18T16:38:12.497Z,49.52
2023-01-18T16:40:44.012Z,49.51
2023-01-18T16:43:24.304Z,49.64
2023-01-18T16:45:55.895Z,49.95
2023-01-18T16:48:25.236Z,49.98
2023-01-18T16:50:55.746Z,49.84
2023-01-18T16:53:23.813Z,49.94
2023-01-18T16:55:51.905Z,50.30
2023-01-18T16:58:21.237Z,50.50
2023-01-18T17:00:57.338Z,50.57
2023-01-18T17:03:28.221Z,50.91
2023-01-18T17:05:56.359Z,51.56
2023-01-18T17:08:24.220Z,51.99
2023-01-18T17:10:54.579Z,51.99
2023-01-18T17:13:23.772Z,52.41
2023-01-18T17:15:54.461Z,52.31
2023-01-18T17:18:27.848Z,52.63
2023-01-18T17:20:56.784Z,52.97
2023-01-18T17:23:25.583Z,53.13
2023-01-18T17:25:53.624Z,53.05
2023-01-18T17:28:21.357Z,53.14
2023-01-18T17:30:50.712Z,53.23
2023-01-18T17:33:22.081Z,53.50
2023-01-18T17:35:50.679Z,53.16
2023-01-18T17:38:24.274Z,52.66
2023-01-18T17:40:53.567Z,52.43
2023-01-18T17:43:33.449Z,52.52
2023-01-18T17:46:03.894Z,52.56
2023-01-18T17:48:33.069Z,52.72
2023-01-18T17:51:00.912Z,52.61
2023-01-18T17:53:28.854Z,52.56
2023-01-18T17:55:56.563Z,52.63
2023-01-18T17:58:24.313Z,52.69
2023-01-18T18:00:52.192Z,53.11
2023-01-18T18:03:20.636Z,53.05
2023-01-18T18:05:50.647Z,53.13
2023-01-18T18:08:18.462Z,53.17
2023-01-18T18:10:46.177Z,53.19
2023-01-18T18:13:13.916Z,53.11
2023-01-18T18:15:46.487Z,53.42
2023-01-18T18:18:22.756Z,53.88
2023-01-18T18:20:58.254Z,53.83
2023-01-18T18:23:26.933Z,53.86
2023-01-18T18:25:55.261Z,54.48
2023-01-18T18:28:24.389Z,54.27
2023-01-18T18:30:52.977Z,54.24
2023-01-18T18:33:21.961Z,54.23
2023-01-18T18:35:50.514Z,54.01
2023-01-18T18:38:22.784Z,53.83
2023-01-18T18:40:51.003Z,53.81
2023-01-18T18:43:19.153Z,53.93
2023-01-18T18:45:47.589Z,53.53
2023-01-18T18:48:15.612Z,53.60
2023-01-18T18:50:43.325Z,53.67
2023-01-18T18:53:11.021Z,53.55
2023-01-18T18:55:40.164Z,53.57
2023-01-18T18:58:07.866Z,53.21
2023-01-18T19:00:35.561Z,53.07
2023-01-18T19:03:04.986Z,53.55
2023-01-18T19:05:34.629Z,55.11
2023-01-18T19:08:02.425Z,54.96
2023-01-18T19:10:30.414Z,55.27
2023-01-18T19:13:00.057Z,55.32
2023-01-18T19:15:28.322Z,55.07
2023-01-18T19:17:56.080Z,55.34
2023-01-18T19:20:23.805Z,55.53
2023-01-18T19:22:52.166Z,56.03
2023-01-18T19:25:20.446Z,56.16
2023-01-18T19:27:49.223Z,56.12
2023-01-18T19:30:20.025Z,56.29
2023-01-18T19:32:49.225Z,56.93
2023-01-18T19:35:17.375Z,57.01
2023-01-18T19:37:45.829Z,57.14
2023-01-18T19:40:15.081Z,57.46
2023-01-18T19:42:44.391Z,56.96
2023-01-18T19:45:19.611Z,57.07
2023-01-18T19:47:52.263Z,57.05
2023-01-18T19:50:20.086Z,56.65
2023-01-18T19:52:47.895Z,56.93
2023-01-18T19:55:15.615Z,57.09
2023-01-18T19:57:43.673Z,57.25
2023-01-18T20:00:12.685Z,57.22
2023-01-18T20:02:40.802Z,57.34
2023-01-18T20:05:10.538Z,57.04
2023-01-18T20:07:38.914Z,56.87
2023-01-18T20:10:07.899Z,56.47
2023-01-18T20:12:35.698Z,56.47
2023-01-18T20:15:03.683Z,55.89
2023-01-18T20:17:31.435Z,55.93
2023-01-18T20:19:59.194Z,55.70
2023-01-18T20:22:28.267Z,55.56
2023-01-18T20:24:56.078Z,55.42
2023-01-18T20:27:23.792Z,55.24
2023-01-18T20:29:51.506Z,55.51
2023-01-18T20:32:19.421Z,55.38
2023-01-18T20:34:47.811Z,55.02
2023-01-18T20:37:16.600Z,55.12
2023-01-18T20:39:45.649Z,54.98
2023-01-18T20:42:15.440Z,54.96
2023-01-18T20:44:43.240Z,54.75
2023-01-18T20:47:11.337Z,54.86
2023-01-18T20:49:41.278Z,54.65
2023-01-18T20:52:09.640Z,54.67
2023-01-18T20:54:37.842Z,54.63
2023-01-18T20:57:07.215Z,55.15
2023-01-18T20:59:34.934Z,55.42
2023-01-18T21:02:03.413Z,55.92
2023-01-18T21:04:31.244Z,56.16
2023-01-18T21:06:59.166Z,56.12
2023-01-18T21:09:27.213Z,56.33
2023-01-18T21:11:54.949Z,56.48
2023-01-18T21:14:24.086Z,56.81
2023-01-18T21:16:51.867Z,56.78
2023-01-18T21:19:20.650Z,56.93
2023-01-18T21:21:48.384Z,56.96
2023-01-18T21:24:17.085Z,56.68
2023-01-18T21:26:45.070Z,56.26
2023-01-18T21:29:12.712Z,55.98
2023-01-18T21:31:41.853Z,55.90
2023-01-18T21:34:10.125Z,56.06
2023-01-18T21:36:37.922Z,56.22
2023-01-18T21:39:05.796Z,56.38
2023-01-18T21:41:51.150Z,56.63
2023-01-18T21:44:36.589Z,58.31
2023-01-18T21:47:05.632Z,58.22
2023-01-18T21:50:16.530Z,58.04
2023-01-18T21:52:56.811Z,58.34
2023-01-18T21:55:24.599Z,58.21
2023-01-18T21:58:06.370Z,58.28
2023-01-18T22:00:37.055Z,57.69
2023-01-18T22:03:06.632Z,57.97
2023-01-18T22:05:34.584Z,57.93
2023-01-18T22:08:02.580Z,57.47
2023-01-18T22:10:30.438Z,57.74
2023-01-18T22:12:58.186Z,57.61
2023-01-18T22:15:26.078Z,57.33
2023-01-18T22:17:53.711Z,57.26
2023-01-18T22:20:22.719Z,57.15
2023-01-18T22:22:50.518Z,57.08
2023-01-18T22:25:18.205Z,56.91
2023-01-18T22:27:45.934Z,56.72
2023-01-18T22:30:14.463Z,56.77
2023-01-18T22:32:42.139Z,56.78
2023-01-18T22:35:10.414Z,56.61
2023-01-18T22:37:39.516Z,56.31
2023-01-18T22:40:09.236Z,56.32
2023-01-18T22:42:36.990Z,56.25
2023-01-18T22:45:05.425Z,55.85
2023-01-18T22:47:33.094Z,56.27
2023-01-18T22:50:00.801Z,56.64
2023-01-18T22:52:28.577Z,57.12
2023-01-18T22:54:57.590Z,57.93
2023-01-18T22:57:25.231Z,58.56
2023-01-18T22:59:52.947Z,58.71
2023-01-18T23:02:20.890Z,58.69
2023-01-18T23:04:49.346Z,58.50
2023-01-18T23:07:17.473Z,58.17
2023-01-18T23:09:45.231Z,58.32
2023-01-18T23:12:14.269Z,58.28
2023-01-18T23:14:59.615Z,58.30
2023-01-18T23:17:39.437Z,57.97
2023-01-18T23:20:08.858Z,58.03
2023-01-18T23:22:36.487Z,58.12
2023-01-18T23:25:05.101Z,58.44
2023-01-18T23:27:34.158Z,58.44
2023-01-18T23:30:02.512Z,59.04
2023-01-18T23:32:31.517Z,59.70
2023-01-18T23:34:59.926Z,59.58
2023-01-18T23:37:28.428Z,59.58
2023-01-18T23:40:13.562Z,59.31
2023-01-18T23:43:00.353Z,59.81
2023-01-18T23:45:45.899Z,60.27
2023-01-18T23:48:33.272Z,60.66
2023-01-18T23:51:19.350Z,61.29
2023-01-18T23:54:05.028Z,61.35
2023-01-18T23:56:33.353Z,61.38
2023-01-18T23:59:03.033Z,61.01
